sensor_id;sensor_type;location;lat;lon;timestamp;pressure;altitude;pressure_sealevel;temperature;humidity
68859;BME280;55864;49.238;8.092;2023-11-19T00:01:18;99338.72;;;7.55;100.00
68859;BME280;55864;49.238;8.092;2023-11-19T00:03:18;99334.72;;;7.51;100.00
68859;BME280;55864;49.238;8.092;2023-11-19T00:05:19;99315.88;;;7.57;100.00
68859;BME280;55864;49.238;8.092;2023-11-19T00:07:19;99319.81;;;7.63;100.00
68859;BME280;55864;49.238;8.092;2023-11-19T00:09:20;99321.38;;;7.54;100.00
68859;BME280;55864;49.238;8.092;2023-11-19T00:11:20;99329.22;;;7.54;100.00
68859;BME280;55864;49.238;8.092;2023-11-19T00:13:21;99318.75;;;7.54;100.00
68859;BME280;55864;49.238;8.092;2023-11-19T00:15:21;99321.19;;;7.67;100.00
68859;BME280;55864;49.238;8.092;2023-11-19T00:17:23;99335.84;;;7.79;100.00
68859;BME280;55864;49.238;8.092;2023-11-19T00:19:24;99330.25;;;7.83;100.00
68859;BME280;55864;49.238;8.092;2023-11-19T00:21:24;99322.28;;;7.85;100.00
68859;BME280;55864;49.238;8.092;2023-11-19T00:23:25;99316.66;;;7.89;100.00
68859;BME280;55864;49.238;8.092;2023-11-19T00:25:25;99302.31;;;8.04;100.00
68859;BME280;55864;49.238;8.092;2023-11-19T00:27:26;99292.03;;;7.92;100.00
68859;BME280;55864;49.238;8.092;2023-11-19T00:29:26;99289.84;;;7.97;100.00
68859;BME280;55864;49.238;8.092;2023-11-19T00:31:27;99296.19;;;7.94;100.00
68859;BME280;55864;49.238;8.092;2023-11-19T00:33:29;99290.97;;;7.94;100.00
68859;BME280;55864;49.238;8.092;2023-11-19T00:35:29;99304.59;;;7.98;100.00
68859;BME280;55864;49.238;8.092;2023-11-19T00:37:30;99306.84;;;8.02;100.00
68859;BME280;55864;49.238;8.092;2023-11-19T00:39:30;99288.69;;;8.10;100.00
68859;BME280;55864;49.238;8.092;2023-11-19T00:41:34;99296.66;;;8.09;100.00
68859;BME280;55864;49.238;8.092;2023-11-19T00:43:34;99277.59;;;7.97;100.00
68859;BME280;55864;49.238;8.092;2023-11-19T00:45:35;99299.75;;;7.93;100.00
68859;BME280;55864;49.238;8.092;2023-11-19T00:47:36;99297.31;;;8.01;100.00
68859;BME280;55864;49.238;8.092;2023-11-19T00:49:37;99301.34;;;8.05;100.00
68859;BME280;55864;49.238;8.092;2023-11-19T00:51:38;99295.69;;;8.30;100.00
68859;BME280;55864;49.238;8.092;2023-11-19T00:53:39;99285.66;;;8.35;100.00
68859;BME280;55864;49.238;8.092;2023-11-19T00:55:39;99285.53;;;8.37;100.00
68859;BME280;55864;49.238;8.092;2023-11-19T00:57:39;99271.25;;;8.20;100.00
68859;BME280;55864;49.238;8.092;2023-11-19T00:59:41;99262.69;;;8.18;100.00
68859;BME280;55864;49.238;8.092;2023-11-19T01:01:42;99260.28;;;8.26;100.00
68859;BME280;55864;49.238;8.092;2023-11-19T01:03:42;99262.75;;;8.28;100.00
68859;BME280;55864;49.238;8.092;2023-11-19T01:05:44;99275.53;;;8.61;100.00
68859;BME280;55864;49.238;8.092;2023-11-19T01:07:45;99284.50;;;8.59;100.00
68859;BME280;55864;49.238;8.092;2023-11-19T01:09:45;99282.69;;;8.49;100.00
68859;BME280;55864;49.238;8.092;2023-11-19T01:11:46;99272.91;;;8.51;100.00
68859;BME280;55864;49.238;8.092;2023-11-19T01:13:49;99269.25;;;8.33;100.00
68859;BME280;55864;49.238;8.092;2023-11-19T01:15:50;99266.22;;;8.28;100.00
68859;BME280;55864;49.238;8.092;2023-11-19T01:17:50;99267.09;;;8.48;100.00
68859;BME280;55864;49.238;8.092;2023-11-19T01:19:51;99263.56;;;8.59;100.00
68859;BME280;55864;49.238;8.092;2023-11-19T01:21:52;99274.03;;;8.59;100.00
68859;BME280;55864;49.238;8.092;2023-11-19T01:23:53;99275.41;;;8.63;100.00
68859;BME280;55864;49.238;8.092;2023-11-19T01:25:53;99277.22;;;8.72;100.00
68859;BME280;55864;49.238;8.092;2023-11-19T01:27:54;99278.44;;;8.68;100.00
68859;BME280;55864;49.238;8.092;2023-11-19T01:29:54;99276.03;;;8.95;100.00
68859;BME280;55864;49.238;8.092;2023-11-19T01:31:56;99286.72;;;8.82;100.00
68859;BME280;55864;49.238;8.092;2023-11-19T01:33:59;99277.78;;;8.75;100.00
68859;BME280;55864;49.238;8.092;2023-11-19T01:36:00;99265.94;;;8.81;100.00
68859;BME280;55864;49.238;8.092;2023-11-19T01:38:01;99278.78;;;8.84;100.00
68859;BME280;55864;49.238;8.092;2023-11-19T01:40:02;99269.09;;;8.75;100.00
68859;BME280;55864;49.238;8.092;2023-11-19T01:42:04;99261.91;;;8.77;100.00
68859;BME280;55864;49.238;8.092;2023-11-19T01:44:06;99255.56;;;8.60;100.00
68859;BME280;55864;49.238;8.092;2023-11-19T01:46:07;99262.03;;;8.66;100.00
68859;BME280;55864;49.238;8.092;2023-11-19T01:48:07;99269.50;;;8.70;100.00
68859;BME280;55864;49.238;8.092;2023-11-19T01:50:08;99259.19;;;8.69;100.00
68859;BME280;55864;49.238;8.092;2023-11-19T01:52:09;99261.34;;;8.64;100.00
68859;BME280;55864;49.238;8.092;2023-11-19T01:54:12;99235.69;;;8.57;100.00
68859;BME280;55864;49.238;8.092;2023-11-19T01:56:14;99247.41;;;8.44;100.00
68859;BME280;55864;49.238;8.092;2023-11-19T01:58:16;99244.78;;;8.53;100.00
68859;BME280;55864;49.238;8.092;2023-11-19T02:00:19;99247.94;;;8.38;100.00
68859;BME280;55864;49.238;8.092;2023-11-19T02:02:20;99252.19;;;8.39;100.00
68859;BME280;55864;49.238;8.092;2023-11-19T02:04:21;99254.09;;;8.27;100.00
68859;BME280;55864;49.238;8.092;2023-11-19T02:06:22;99255.38;;;8.42;100.00
68859;BME280;55864;49.238;8.092;2023-11-19T02:08:23;99251.22;;;8.30;100.00
68859;BME280;55864;49.238;8.092;2023-11-19T02:10:25;99267.09;;;8.48;100.00
68859;BME280;55864;49.238;8.092;2023-11-19T02:12:26;99265.84;;;8.42;100.00
68859;BME280;55864;49.238;8.092;2023-11-19T02:14:26;99262.94;;;8.36;100.00
68859;BME280;55864;49.238;8.092;2023-11-19T02:16:27;99266.59;;;8.64;100.00
68859;BME280;55864;49.238;8.092;2023-11-19T02:18:27;99266.16;;;8.49;100.00
68859;BME280;55864;49.238;8.092;2023-11-19T02:20:29;99260.13;;;8.77;100.00
68859;BME280;55864;49.238;8.092;2023-11-19T02:22:29;99253.78;;;8.21;100.00
68859;BME280;55864;49.238;8.092;2023-11-19T02:24:31;99243.09;;;8.33;100.00
68859;BME280;55864;49.238;8.092;2023-11-19T02:26:39;99256.03;;;8.35;100.00
68859;BME280;55864;49.238;8.092;2023-11-19T02:28:44;99238.66;;;8.24;100.00
68859;BME280;55864;49.238;8.092;2023-11-19T02:30:45;99224.28;;;8.19;100.00
68859;BME280;55864;49.238;8.092;2023-11-19T02:32:46;99222.75;;;8.16;100.00
68859;BME280;55864;49.238;8.092;2023-11-19T02:34:46;99221.22;;;8.14;100.00
68859;BME280;55864;49.238;8.092;2023-11-19T02:36:47;99224.69;;;8.14;100.00
68859;BME280;55864;49.238;8.092;2023-11-19T02:38:47;99235.06;;;8.25;100.00
68859;BME280;55864;49.238;8.092;2023-11-19T02:40:48;99233.66;;;8.21;100.00
68859;BME280;55864;49.238;8.092;2023-11-19T02:42:48;99238.38;;;8.27;100.00
68859;BME280;55864;49.238;8.092;2023-11-19T02:44:50;99245.88;;;8.41;100.00
68859;BME280;55864;49.238;8.092;2023-11-19T02:46:51;99240.50;;;8.43;100.00
68859;BME280;55864;49.238;8.092;2023-11-19T02:48:52;99243.41;;;8.40;100.00
68859;BME280;55864;49.238;8.092;2023-11-19T02:50:52;99241.16;;;8.35;100.00
68859;BME280;55864;49.238;8.092;2023-11-19T02:52:56;99236.09;;;8.43;100.00
68859;BME280;55864;49.238;8.092;2023-11-19T02:54:56;99239.44;;;8.55;100.00
68859;BME280;55864;49.238;8.092;2023-11-19T02:56:57;99232.38;;;8.36;100.00
68859;BME280;55864;49.238;8.092;2023-11-19T02:58:57;99225.19;;;8.38;100.00
68859;BME280;55864;49.238;8.092;2023-11-19T03:00:59;99232.38;;;8.36;100.00
68859;BME280;55864;49.238;8.092;2023-11-19T03:03:00;99232.66;;;8.43;100.00
68859;BME280;55864;49.238;8.092;2023-11-19T03:05:00;99220.94;;;8.47;100.00
68859;BME280;55864;49.238;8.092;2023-11-19T03:07:02;99220.25;;;8.45;100.00
68859;BME280;55864;49.238;8.092;2023-11-19T03:09:03;99214.72;;;8.38;100.00
68859;BME280;55864;49.238;8.092;2023-11-19T03:11:04;99214.84;;;8.37;100.00
68859;BME280;55864;49.238;8.092;2023-11-19T03:13:04;99218.19;;;8.48;100.00
68859;BME280;55864;49.238;8.092;2023-11-19T03:15:06;99220.94;;;8.47;100.00
68859;BME280;55864;49.238;8.092;2023-11-19T03:17:08;99219.41;;;8.44;100.00
68859;BME280;55864;49.238;8.092;2023-11-19T03:19:09;99220.41;;;8.43;100.00
68859;BME280;55864;49.238;8.092;2023-11-19T03:21:09;99218.50;;;8.55;100.00
68859;BME280;55864;49.238;8.092;2023-11-19T03:23:10;99217.22;;;8.40;100.00
68859;BME280;55864;49.238;8.092;2023-11-19T03:25:10;99207.75;;;8.58;100.00
68859;BME280;55864;49.238;8.092;2023-11-19T03:27:11;99207.03;;;8.46;100.00
68859;BME280;55864;49.238;8.092;2023-11-19T03:29:11;99200.16;;;8.45;100.00
68859;BME280;55864;49.238;8.092;2023-11-19T03:31:12;99207.16;;;8.45;100.00
68859;BME280;55864;49.238;8.092;2023-11-19T03:33:14;99207.03;;;8.46;100.00
68859;BME280;55864;49.238;8.092;2023-11-19T03:35:15;99205.09;;;8.48;100.00
68859;BME280;55864;49.238;8.092;2023-11-19T03:37:16;99204.00;;;8.41;100.00
68859;BME280;55864;49.238;8.092;2023-11-19T03:39:17;99222.72;;;8.46;100.00
68859;BME280;55864;49.238;8.092;2023-11-19T03:41:18;99209.25;;;8.51;100.00
68859;BME280;55864;49.238;8.092;2023-11-19T03:43:18;99214.19;;;8.44;100.00
68859;BME280;55864;49.238;8.092;2023-11-19T03:45:19;99216.66;;;8.36;100.00
68859;BME280;55864;49.238;8.092;2023-11-19T03:47:20;99208.94;;;8.44;100.00
68859;BME280;55864;49.238;8.092;2023-11-19T03:49:21;99207.84;;;8.37;100.00
68859;BME280;55864;49.238;8.092;2023-11-19T03:51:22;99201.09;;;8.44;100.00
68859;BME280;55864;49.238;8.092;2023-11-19T03:53:22;99201.94;;;8.45;100.00
68859;BME280;55864;49.238;8.092;2023-11-19T03:55:23;99202.34;;;8.50;100.00
68859;BME280;55864;49.238;8.092;2023-11-19T03:57:26;99200.41;;;8.52;100.00
68859;BME280;55864;49.238;8.092;2023-11-19T03:59:27;99190.53;;;8.75;100.00
68859;BME280;55864;49.238;8.092;2023-11-19T04:01:27;99194.13;;;8.83;100.00
68859;BME280;55864;49.238;8.092;2023-11-19T04:03:28;99193.72;;;8.69;100.00
68859;BME280;55864;49.238;8.092;2023-11-19T04:05:31;99199.34;;;8.74;100.00
68859;BME280;55864;49.238;8.092;2023-11-19T04:07:32;99189.69;;;9.03;100.00
68859;BME280;55864;49.238;8.092;2023-11-19T04:09:32;99178.06;;;9.34;100.00
68859;BME280;55864;49.238;8.092;2023-11-19T04:11:33;99182.75;;;9.49;100.00
68859;BME280;55864;49.238;8.092;2023-11-19T04:13:33;99179.34;;;9.76;100.00
68859;BME280;55864;49.238;8.092;2023-11-19T04:15:34;99180.09;;;9.86;100.00
68859;BME280;55864;49.238;8.092;2023-11-19T04:17:34;99189.16;;;10.01;100.00
68859;BME280;55864;49.238;8.092;2023-11-19T04:19:35;99185.56;;;10.02;100.00
68859;BME280;55864;49.238;8.092;2023-11-19T04:21:37;99183.09;;;10.10;100.00
68859;BME280;55864;49.238;8.092;2023-11-19T04:23:37;99193.28;;;10.04;100.00
68859;BME280;55864;49.238;8.092;2023-11-19T04:25:38;99187.53;;;10.00;100.00
68859;BME280;55864;49.238;8.092;2023-11-19T04:27:38;99187.88;;;10.15;100.00
68859;BME280;55864;49.238;8.092;2023-11-19T04:29:39;99189.34;;;10.27;100.00
68859;BME280;55864;49.238;8.092;2023-11-19T04:31:39;99186.94;;;10.33;100.00
68859;BME280;55864;49.238;8.092;2023-11-19T04:33:40;99182.06;;;10.21;100.00
68859;BME280;55864;49.238;8.092;2023-11-19T04:35:40;99175.28;;;10.18;100.00
68859;BME280;55864;49.238;8.092;2023-11-19T04:37:42;99180.63;;;10.26;100.00
68859;BME280;55864;49.238;8.092;2023-11-19T04:39:44;99187.41;;;10.29;100.00
68859;BME280;55864;49.238;8.092;2023-11-19T04:41:47;99183.00;;;10.47;100.00
68859;BME280;55864;49.238;8.092;2023-11-19T04:43:48;99185.69;;;10.37;100.00
68859;BME280;55864;49.238;8.092;2023-11-19T04:45:48;99195.22;;;10.38;100.00
68859;BME280;55864;49.238;8.092;2023-11-19T04:47:49;99198.59;;;10.31;100.00
68859;BME280;55864;49.238;8.092;2023-11-19T04:49:49;99191.50;;;10.31;100.00
68859;BME280;55864;49.238;8.092;2023-11-19T04:51:50;99190.13;;;10.37;100.00
68859;BME280;55864;49.238;8.092;2023-11-19T04:53:52;99179.41;;;10.48;100.00
68859;BME280;55864;49.238;8.092;2023-11-19T04:55:52;99174.84;;;10.50;100.00
68859;BME280;55864;49.238;8.092;2023-11-19T04:57:54;99184.28;;;10.61;100.00
68859;BME280;55864;49.238;8.092;2023-11-19T04:59:54;99176.03;;;10.56;100.00
68859;BME280;55864;49.238;8.092;2023-11-19T05:01:55;99172.28;;;10.40;100.00
68859;BME280;55864;49.238;8.092;2023-11-19T05:03:56;99183.44;;;10.60;100.00
68859;BME280;55864;49.238;8.092;2023-11-19T05:06:04;99169.59;;;10.50;100.00
68859;BME280;55864;49.238;8.092;2023-11-19T05:08:05;99167.00;;;10.58;100.00
68859;BME280;55864;49.238;8.092;2023-11-19T05:10:07;99170.19;;;10.79;100.00
68859;BME280;55864;49.238;8.092;2023-11-19T05:12:08;99167.25;;;10.65;100.00
68859;BME280;55864;49.238;8.092;2023-11-19T05:14:09;99172.97;;;10.78;100.00
68859;BME280;55864;49.238;8.092;2023-11-19T05:16:09;99181.84;;;10.77;100.00
68859;BME280;55864;49.238;8.092;2023-11-19T05:18:10;99180.16;;;10.76;100.00
68859;BME280;55864;49.238;8.092;2023-11-19T05:20:10;99166.00;;;10.69;100.00
68859;BME280;55864;49.238;8.092;2023-11-19T05:22:11;99174.69;;;10.87;100.00
68859;BME280;55864;49.238;8.092;2023-11-19T05:24:11;99174.75;;;10.95;100.00
68859;BME280;55864;49.238;8.092;2023-11-19T05:26:20;99166.97;;;10.85;100.00
68859;BME280;55864;49.238;8.092;2023-11-19T05:28:22;99161.69;;;11.03;100.00
68859;BME280;55864;49.238;8.092;2023-11-19T05:30:22;99172.97;;;10.78;100.00
68859;BME280;55864;49.238;8.092;2023-11-19T05:32:23;99175.06;;;10.92;100.00
68859;BME280;55864;49.238;8.092;2023-11-19T05:34:23;99172.22;;;11.03;100.00
68859;BME280;55864;49.238;8.092;2023-11-19T05:36:24;99165.88;;;10.96;100.00
68859;BME280;55864;49.238;8.092;2023-11-19T05:38:24;99167.56;;;10.97;100.00
68859;BME280;55864;49.238;8.092;2023-11-19T05:40:25;99166.63;;;11.06;100.00
68859;BME280;55864;49.238;8.092;2023-11-19T05:42:27;99168.91;;;11.01;100.00
68859;BME280;55864;49.238;8.092;2023-11-19T05:44:27;99167.00;;;11.11;100.00
68859;BME280;55864;49.238;8.092;2023-11-19T05:46:28;99169.25;;;11.23;100.00
68859;BME280;55864;49.238;8.092;2023-11-19T05:48:28;99162.22;;;11.32;100.00
68859;BME280;55864;49.238;8.092;2023-11-19T05:50:29;99162.94;;;11.16;100.00
68859;BME280;55864;49.238;8.092;2023-11-19T05:52:29;99154.53;;;11.13;100.00
68859;BME280;55864;49.238;8.092;2023-11-19T05:54:33;99158.66;;;11.15;100.00
68859;BME280;55864;49.238;8.092;2023-11-19T05:56:33;99151.00;;;11.22;100.00
68859;BME280;55864;49.238;8.092;2023-11-19T05:58:35;99149.72;;;11.26;100.00
68859;BME280;55864;49.238;8.092;2023-11-19T06:00:36;99154.81;;;11.27;100.00
68859;BME280;55864;49.238;8.092;2023-11-19T06:02:36;99156.19;;;11.39;100.00
68859;BME280;55864;49.238;8.092;2023-11-19T06:04:37;99156.97;;;11.32;100.00
68859;BME280;55864;49.238;8.092;2023-11-19T06:08:38;99162.78;;;11.44;100.00
68859;BME280;55864;49.238;8.092;2023-11-19T06:10:39;99164.25;;;11.38;100.00
68859;BME280;55864;49.238;8.092;2023-11-19T06:12:39;99176.97;;;11.51;100.00
68859;BME280;55864;49.238;8.092;2023-11-19T06:14:41;99172.13;;;11.38;100.00
68859;BME280;55864;49.238;8.092;2023-11-19T06:16:42;99166.50;;;11.33;100.00
68859;BME280;55864;49.238;8.092;2023-11-19T06:18:42;99164.91;;;11.40;100.00
68859;BME280;55864;49.238;8.092;2023-11-19T06:20:43;99163.69;;;11.52;100.00
68859;BME280;55864;49.238;8.092;2023-11-19T06:22:43;99177.97;;;11.50;100.00
68859;BME280;55864;49.238;8.092;2023-11-19T06:24:44;99157.19;;;11.38;100.00
68859;BME280;55864;49.238;8.092;2023-11-19T06:26:44;99165.59;;;11.42;100.00
68859;BME280;55864;49.238;8.092;2023-11-19T06:28:45;99167.66;;;11.56;100.00
68859;BME280;55864;49.238;8.092;2023-11-19T06:30:47;99160.72;;;11.55;100.00
68859;BME280;55864;49.238;8.092;2023-11-19T06:32:47;99156.22;;;11.65;100.00
68859;BME280;55864;49.238;8.092;2023-11-19T06:34:48;99155.63;;;11.54;100.00
68859;BME280;55864;49.238;8.092;2023-11-19T06:36:48;99151.88;;;11.56;100.00
68859;BME280;55864;49.238;8.092;2023-11-19T06:38:49;99148.59;;;11.62;100.00
68859;BME280;55864;49.238;8.092;2023-11-19T06:40:49;99162.16;;;11.67;100.00
68859;BME280;55864;49.238;8.092;2023-11-19T06:42:50;99166.59;;;11.67;100.00
68859;BME280;55864;49.238;8.092;2023-11-19T06:44:50;99172.00;;;11.65;100.00
68859;BME280;55864;49.238;8.092;2023-11-19T06:46:52;99173.28;;;11.61;100.00
68859;BME280;55864;49.238;8.092;2023-11-19T06:48:53;99175.00;;;11.70;100.00
68859;BME280;55864;49.238;8.092;2023-11-19T06:50:53;99178.03;;;11.58;100.00
68859;BME280;55864;49.238;8.092;2023-11-19T06:52:54;99181.44;;;11.76;100.00
68859;BME280;55864;49.238;8.092;2023-11-19T06:54:54;99178.22;;;11.64;100.00
68859;BME280;55864;49.238;8.092;2023-11-19T06:56:55;99187.63;;;11.67;100.00
68859;BME280;55864;49.238;8.092;2023-11-19T06:58:55;99197.28;;;11.58;100.00
68859;BME280;55864;49.238;8.092;2023-11-19T07:00:56;99193.91;;;11.66;100.00
68859;BME280;55864;49.238;8.092;2023-11-19T07:02:58;99202.44;;;11.68;100.00
68859;BME280;55864;49.238;8.092;2023-11-19T07:04:58;99197.72;;;11.54;100.00
68859;BME280;55864;49.238;8.092;2023-11-19T07:06:59;99207.41;;;11.71;100.00
68859;BME280;55864;49.238;8.092;2023-11-19T07:09:00;99190.56;;;11.64;100.00
68859;BME280;55864;49.238;8.092;2023-11-19T07:11:00;99194.63;;;11.58;100.00
68859;BME280;55864;49.238;8.092;2023-11-19T07:13:01;99183.72;;;11.53;100.00
68859;BME280;55864;49.238;8.092;2023-11-19T07:15:01;99198.84;;;11.51;100.00
68859;BME280;55864;49.238;8.092;2023-11-19T07:17:02;99199.56;;;11.61;100.00
68859;BME280;55864;49.238;8.092;2023-11-19T07:19:04;99207.22;;;11.47;100.00
68859;BME280;55864;49.238;8.092;2023-11-19T07:21:06;99210.31;;;11.68;100.00
68859;BME280;55864;49.238;8.092;2023-11-19T07:23:06;99211.66;;;11.72;100.00
68859;BME280;55864;49.238;8.092;2023-11-19T07:25:07;99199.78;;;11.68;100.00
68859;BME280;55864;49.238;8.092;2023-11-19T07:27:10;99198.06;;;11.59;100.00
68859;BME280;55864;49.238;8.092;2023-11-19T07:29:11;99204.50;;;11.64;100.00
68859;BME280;55864;49.238;8.092;2023-11-19T07:31:13;99199.25;;;11.64;100.00
68859;BME280;55864;49.238;8.092;2023-11-19T07:33:13;99186.25;;;11.63;100.00
68859;BME280;55864;49.238;8.092;2023-11-19T07:35:15;99187.81;;;11.48;100.00
68859;BME280;55864;49.238;8.092;2023-11-19T07:37:16;99196.59;;;11.56;100.00
68859;BME280;55864;49.238;8.092;2023-11-19T07:39:16;99205.44;;;11.55;100.00
68859;BME280;55864;49.238;8.092;2023-11-19T07:41:17;99193.13;;;11.56;100.00
68859;BME280;55864;49.238;8.092;2023-11-19T07:43:17;99193.91;;;11.74;100.00
68859;BME280;55864;49.238;8.092;2023-11-19T07:45:18;99208.22;;;11.71;100.00
68859;BME280;55864;49.238;8.092;2023-11-19T07:47:18;99190.31;;;11.75;100.00
68859;BME280;55864;49.238;8.092;2023-11-19T07:49:19;99200.38;;;11.79;100.00
68859;BME280;55864;49.238;8.092;2023-11-19T07:51:21;99201.19;;;11.80;100.00
68859;BME280;55864;49.238;8.092;2023-11-19T07:53:21;99212.28;;;11.91;100.00
68859;BME280;55864;49.238;8.092;2023-11-19T07:55:24;99206.00;;;11.84;100.00
68859;BME280;55864;49.238;8.092;2023-11-19T07:57:25;99211.78;;;11.88;100.00
68859;BME280;55864;49.238;8.092;2023-11-19T07:59:25;99196.16;;;11.94;100.00
68859;BME280;55864;49.238;8.092;2023-11-19T08:01:26;99204.09;;;12.02;100.00
68859;BME280;55864;49.238;8.092;2023-11-19T08:03:26;99206.06;;;12.00;100.00
68859;BME280;55864;49.238;8.092;2023-11-19T08:05:27;99199.78;;;11.93;100.00
68859;BME280;55864;49.238;8.092;2023-11-19T08:07:29;99194.59;;;12.09;100.00
68859;BME280;55864;49.238;8.092;2023-11-19T08:09:29;99188.16;;;12.04;100.00
68859;BME280;55864;49.238;8.092;2023-11-19T08:11:30;99181.28;;;12.11;100.00
68859;BME280;55864;49.238;8.092;2023-11-19T08:13:30;99192.78;;;12.10;100.00
68859;BME280;55864;49.238;8.092;2023-11-19T08:15:33;99196.59;;;12.15;100.00
68859;BME280;55864;49.238;8.092;2023-11-19T08:17:34;99182.66;;;12.31;100.00
68859;BME280;55864;49.238;8.092;2023-11-19T08:19:34;99184.50;;;12.39;100.00
68859;BME280;55864;49.238;8.092;2023-11-19T08:21:35;99193.09;;;12.49;100.00
68859;BME280;55864;49.238;8.092;2023-11-19T08:23:37;99190.31;;;12.58;100.00
68859;BME280;55864;49.238;8.092;2023-11-19T08:25:37;99193.09;;;12.57;100.00
68859;BME280;55864;49.238;8.092;2023-11-19T08:27:38;99193.91;;;12.49;100.00
68859;BME280;55864;49.238;8.092;2023-11-19T08:29:38;99204.31;;;12.51;100.00
68859;BME280;55864;49.238;8.092;2023-11-19T08:31:39;99184.56;;;12.55;100.00
68859;BME280;55864;49.238;8.092;2023-11-19T08:33:40;99199.09;;;12.75;100.00
68859;BME280;55864;49.238;8.092;2023-11-19T08:35:41;99192.16;;;12.82;100.00
68859;BME280;55864;49.238;8.092;2023-11-19T08:37:41;99209.13;;;12.79;99.09
68859;BME280;55864;49.238;8.092;2023-11-19T08:39:43;99208.66;;;12.84;99.45
68859;BME280;55864;49.238;8.092;2023-11-19T08:41:44;99204.88;;;12.86;99.29
68859;BME280;55864;49.238;8.092;2023-11-19T08:43:44;99203.06;;;12.95;99.29
68859;BME280;55864;49.238;8.092;2023-11-19T08:45:45;99216.94;;;13.05;98.51
68859;BME280;55864;49.238;8.092;2023-11-19T08:47:45;99218.22;;;13.01;97.96
68859;BME280;55864;49.238;8.092;2023-11-19T08:49:46;99221.03;;;12.99;97.55
68859;BME280;55864;49.238;8.092;2023-11-19T08:51:46;99217.91;;;13.04;96.87
68859;BME280;55864;49.238;8.092;2023-11-19T08:53:47;99236.53;;;12.94;97.20
68859;BME280;55864;49.238;8.092;2023-11-19T08:55:49;99218.56;;;12.98;97.30
68859;BME280;55864;49.238;8.092;2023-11-19T08:57:49;99228.28;;;12.97;97.32
68859;BME280;55864;49.238;8.092;2023-11-19T08:59:55;99228.16;;;13.15;95.40
68859;BME280;55864;49.238;8.092;2023-11-19T09:01:56;99239.16;;;13.02;94.96
68859;BME280;55864;49.238;8.092;2023-11-19T09:03:56;99238.34;;;13.02;95.62
68859;BME280;55864;49.238;8.092;2023-11-19T09:05:57;99234.34;;;12.82;96.22
68859;BME280;55864;49.238;8.092;2023-11-19T09:07:59;99239.63;;;12.82;98.05
68859;BME280;55864;49.238;8.092;2023-11-19T09:10:00;99235.84;;;12.84;98.93
68859;BME280;55864;49.238;8.092;2023-11-19T09:12:02;99235.34;;;12.97;98.89
68859;BME280;55864;49.238;8.092;2023-11-19T09:14:03;99229.59;;;13.01;98.34
68859;BME280;55864;49.238;8.092;2023-11-19T09:16:04;99234.38;;;12.98;97.91
68859;BME280;55864;49.238;8.092;2023-11-19T09:18:05;99230.28;;;13.11;98.74
68859;BME280;55864;49.238;8.092;2023-11-19T09:20:06;99236.56;;;13.18;96.88
68859;BME280;55864;49.238;8.092;2023-11-19T09:22:07;99228.31;;;13.21;95.03
68859;BME280;55864;49.238;8.092;2023-11-19T09:24:08;99241.34;;;13.15;95.77
68859;BME280;55864;49.238;8.092;2023-11-19T09:26:09;99239.03;;;13.20;97.03
68859;BME280;55864;49.238;8.092;2023-11-19T09:28:11;99242.19;;;13.23;95.40
68859;BME280;55864;49.238;8.092;2023-11-19T09:30:12;99241.69;;;13.20;94.44
68859;BME280;55864;49.238;8.092;2023-11-19T09:32:12;99240.00;;;13.03;95.10
68859;BME280;55864;49.238;8.092;2023-11-19T09:34:13;99245.63;;;13.08;94.81
68859;BME280;55864;49.238;8.092;2023-11-19T09:36:13;99249.09;;;13.16;93.18
68859;BME280;55864;49.238;8.092;2023-11-19T09:38:14;99252.91;;;13.22;94.49
68859;BME280;55864;49.238;8.092;2023-11-19T09:40:15;99254.88;;;13.20;95.26
68859;BME280;55864;49.238;8.092;2023-11-19T09:42:15;99258.19;;;13.30;95.39
68859;BME280;55864;49.238;8.092;2023-11-19T09:44:17;99253.25;;;13.19;94.19
68859;BME280;55864;49.238;8.092;2023-11-19T09:46:19;99253.88;;;13.13;93.21
68859;BME280;55864;49.238;8.092;2023-11-19T09:48:20;99264.59;;;13.19;92.79
68859;BME280;55864;49.238;8.092;2023-11-19T09:50:21;99269.06;;;13.19;92.13
68859;BME280;55864;49.238;8.092;2023-11-19T09:52:21;99271.69;;;13.27;91.78
68859;BME280;55864;49.238;8.092;2023-11-19T09:54:22;99260.47;;;13.33;90.75
68859;BME280;55864;49.238;8.092;2023-11-19T09:56:23;99258.16;;;13.22;92.22
68859;BME280;55864;49.238;8.092;2023-11-19T09:58:23;99253.38;;;13.26;91.41
68859;BME280;55864;49.238;8.092;2023-11-19T10:00:25;99255.69;;;13.20;90.98
68859;BME280;55864;49.238;8.092;2023-11-19T10:02:27;99260.81;;;13.30;91.65
68859;BME280;55864;49.238;8.092;2023-11-19T10:04:33;99256.88;;;13.34;91.93
68859;BME280;55864;49.238;8.092;2023-11-19T10:06:35;99250.25;;;13.38;91.78
68859;BME280;55864;49.238;8.092;2023-11-19T10:08:37;99254.22;;;13.42;91.41
68859;BME280;55864;49.238;8.092;2023-11-19T10:10:37;99244.66;;;13.49;90.80
68859;BME280;55864;49.238;8.092;2023-11-19T10:12:38;99243.50;;;13.60;90.66
68859;BME280;55864;49.238;8.092;2023-11-19T10:14:39;99246.44;;;13.73;89.00
68859;BME280;55864;49.238;8.092;2023-11-19T10:16:43;99252.19;;;13.84;87.93
68859;BME280;55864;49.238;8.092;2023-11-19T10:18:48;99259.44;;;13.98;86.99
68859;BME280;55864;49.238;8.092;2023-11-19T10:20:49;99244.28;;;13.76;87.40
68859;BME280;55864;49.238;8.092;2023-11-19T10:22:52;99239.19;;;13.75;87.31
68859;BME280;55864;49.238;8.092;2023-11-19T10:24:53;99237.03;;;13.70;88.17
68859;BME280;55864;49.238;8.092;2023-11-19T10:26:56;99241.94;;;13.89;88.67
68859;BME280;55864;49.238;8.092;2023-11-19T10:28:57;99231.72;;;13.94;87.47
68859;BME280;55864;49.238;8.092;2023-11-19T10:30:57;99234.00;;;14.05;86.68
68859;BME280;55864;49.238;8.092;2023-11-19T10:33:06;99231.84;;;14.09;86.44
68859;BME280;55864;49.238;8.092;2023-11-19T10:35:07;99231.00;;;14.08;85.78
68859;BME280;55864;49.238;8.092;2023-11-19T10:37:08;99239.28;;;14.05;85.87
68859;BME280;55864;49.238;8.092;2023-11-19T10:39:08;99231.81;;;14.17;85.16